createdAt,value
2023-03-13T00:00:32.483Z,0.00
2023-03-13T00:01:32.649Z,0.00
2023-03-13T00:02:32.869Z,0.00
2023-03-13T00:03:32.958Z,0.00
2023-03-13T00:04:33.213Z,0.00
2023-03-13T00:05:33.250Z,0.00
2023-03-13T00:06:33.424Z,0.00
2023-03-13T00:07:33.606Z,0.00
2023-03-13T00:08:33.836Z,0.00
2023-03-13T00:09:33.987Z,0.00
2023-03-13T00:10:34.191Z,0.00
2023-03-13T00:11:34.360Z,0.00
2023-03-13T00:12:34.360Z,0.00
2023-03-13T00:13:34.577Z,0.00
2023-03-13T00:14:34.623Z,0.00
2023-03-13T00:15:34.805Z,0.00
2023-03-13T00:16:35.023Z,0.00
2023-03-13T00:17:35.085Z,0.00
2023-03-13T00:18:35.303Z,0.00
2023-03-13T00:19:35.362Z,0.00
2023-03-13T00:20:35.551Z,0.00
2023-03-13T00:21:35.722Z,0.00
2023-03-13T00:22:35.912Z,0.00
2023-03-13T00:23:36.114Z,0.00
2023-03-13T00:24:36.292Z,0.00
2023-03-13T00:25:36.471Z,0.00
2023-03-13T00:26:36.658Z,0.00
2023-03-13T00:27:36.854Z,0.00
2023-03-13T00:28:37.087Z,0.00
2023-03-13T00:29:37.125Z,0.00
2023-03-13T00:30:37.306Z,0.00
2023-03-13T00:31:37.487Z,0.00
2023-03-13T00:32:37.655Z,0.00
2023-03-13T00:33:37.752Z,0.00
2023-03-13T00:34:37.924Z,0.00
2023-03-13T00:35:38.182Z,0.00
2023-03-13T00:36:38.230Z,0.00
2023-03-13T00:37:38.426Z,0.00
2023-03-13T00:38:38.600Z,0.00
2023-03-13T00:39:38.762Z,0.00
2023-03-13T00:40:38.939Z,0.00
2023-03-13T00:41:39.119Z,0.00
2023-03-13T00:42:39.282Z,0.00
2023-03-13T00:43:39.461Z,0.00
2023-03-13T00:44:39.651Z,0.00
2023-03-13T00:45:39.809Z,0.00
2023-03-13T00:46:39.981Z,0.00
2023-03-13T00:47:40.143Z,0.00
2023-03-13T00:48:40.332Z,0.00
2023-03-13T00:49:40.502Z,0.00
2023-03-13T00:50:40.661Z,0.00
2023-03-13T00:51:40.840Z,0.00
2023-03-13T00:52:41.029Z,0.00
2023-03-13T00:53:41.215Z,0.00
2023-03-13T00:54:41.401Z,0.00
2023-03-13T00:55:41.577Z,0.00
2023-03-13T00:56:41.748Z,0.00
2023-03-13T00:57:41.918Z,0.00
2023-03-13T00:58:42.116Z,0.00
2023-03-13T00:59:42.173Z,0.00
2023-03-13T01:00:42.362Z,0.00
2023-03-13T01:01:42.543Z,0.00
2023-03-13T01:02:42.872Z,0.00
2023-03-13T01:03:42.874Z,0.00
2023-03-13T01:04:43.051Z,0.00
2023-03-13T01:05:43.218Z,0.00
2023-03-13T01:06:43.443Z,0.00
2023-03-13T01:07:43.580Z,0.00
2023-03-13T01:08:43.774Z,0.00
2023-03-13T01:09:43.961Z,0.00
2023-03-13T01:10:44.119Z,0.00
2023-03-13T01:11:44.295Z,0.00
2023-03-13T01:12:44.458Z,0.00
2023-03-13T01:13:44.644Z,0.00
2023-03-13T01:14:44.818Z,0.00
2023-03-13T01:15:45.000Z,0.00
2023-03-13T01:16:45.147Z,0.00
2023-03-13T01:17:45.340Z,0.00
2023-03-13T01:18:45.522Z,0.00
2023-03-13T01:19:45.567Z,0.00
2023-03-13T01:20:45.737Z,0.00
2023-03-13T01:21:45.881Z,0.00
2023-03-13T01:22:46.059Z,0.00
2023-03-13T01:23:46.238Z,0.00
2023-03-13T01:24:46.387Z,0.00
2023-03-13T01:25:46.551Z,0.00
2023-03-13T01:26:46.709Z,0.00
2023-03-13T01:27:46.870Z,0.00
2023-03-13T01:28:47.060Z,0.00
2023-03-13T01:29:47.234Z,0.00
2023-03-13T01:30:47.410Z,0.00
2023-03-13T01:31:47.544Z,0.00
2023-03-13T01:32:47.724Z,0.00
2023-03-13T01:33:47.832Z,0.00
2023-03-13T01:34:47.985Z,0.00
2023-03-13T01:35:48.188Z,0.00
2023-03-13T01:36:48.335Z,0.00
2023-03-13T01:37:48.475Z,0.00
2023-03-13T01:38:48.664Z,0.00
2023-03-13T01:39:48.822Z,0.00
2023-03-13T01:40:48.987Z,0.00
2023-03-13T01:41:49.134Z,0.00
2023-03-13T01:42:49.310Z,0.00
2023-03-13T01:43:49.460Z,0.00
2023-03-13T01:44:49.619Z,0.00
2023-03-13T01:45:49.764Z,0.00
2023-03-13T01:46:49.962Z,0.00
2023-03-13T01:47:50.094Z,0.00
2023-03-13T01:48:50.275Z,0.00
2023-03-13T01:49:50.434Z,0.00
2023-03-13T01:50:50.584Z,0.00
2023-03-13T01:51:50.760Z,0.00
2023-03-13T01:52:50.932Z,0.00
2023-03-13T01:53:51.112Z,0.00
2023-03-13T01:54:51.280Z,0.00
2023-03-13T01:55:51.439Z,0.00
2023-03-13T01:56:51.592Z,0.00
2023-03-13T01:57:51.760Z,0.00
2023-03-13T01:58:51.931Z,0.00
2023-03-13T01:59:52.092Z,0.00
2023-03-13T02:00:52.242Z,0.00
2023-03-13T02:01:52.490Z,0.00
2023-03-13T02:02:52.615Z,0.00
2023-03-13T02:03:52.713Z,0.00
2023-03-13T02:04:52.878Z,0.00
2023-03-13T02:05:53.033Z,0.00
2023-03-13T02:06:53.178Z,0.00
2023-03-13T02:07:53.347Z,0.00
2023-03-13T02:08:53.527Z,0.00
2023-03-13T02:09:53.697Z,0.00
2023-03-13T02:10:53.825Z,0.00
2023-03-13T02:11:53.993Z,0.00
2023-03-13T02:12:54.169Z,0.00
2023-03-13T02:13:54.351Z,0.00
2023-03-13T02:14:54.526Z,0.00
2023-03-13T02:15:54.720Z,0.00
2023-03-13T02:16:54.783Z,0.00
2023-03-13T02:17:54.936Z,0.00
2023-03-13T02:18:55.106Z,0.00
2023-03-13T02:19:55.276Z,0.00
2023-03-13T02:20:55.425Z,0.00
2023-03-13T02:21:55.586Z,0.00
2023-03-13T02:22:55.740Z,0.00
2023-03-13T02:23:55.912Z,0.00
2023-03-13T02:24:56.062Z,0.00
2023-03-13T02:25:56.215Z,0.00
2023-03-13T02:26:56.370Z,0.00
2023-03-13T02:27:56.519Z,0.00
2023-03-13T02:28:56.689Z,0.00
2023-03-13T02:29:56.849Z,0.00
2023-03-13T02:30:57.073Z,0.00
2023-03-13T02:31:57.109Z,0.00
2023-03-13T02:32:57.333Z,0.00
2023-03-13T02:33:57.399Z,0.00
2023-03-13T02:34:57.558Z,0.00
2023-03-13T02:35:57.765Z,0.00
2023-03-13T02:36:57.915Z,0.00
2023-03-13T02:37:58.053Z,0.00
2023-03-13T02:38:58.221Z,0.00
2023-03-13T02:39:58.397Z,0.00
2023-03-13T02:40:58.545Z,0.00
2023-03-13T02:41:58.700Z,0.00
2023-03-13T02:42:58.861Z,0.00
2023-03-13T02:43:59.023Z,0.00
2023-03-13T02:44:59.181Z,0.00
2023-03-13T02:45:59.328Z,0.00
2023-03-13T02:46:59.660Z,0.00
2023-03-13T02:47:59.599Z,0.00
2023-03-13T02:48:59.757Z,0.00
2023-03-13T02:49:59.918Z,0.00
2023-03-13T02:51:00.078Z,0.00
2023-03-13T02:52:00.219Z,0.00
2023-03-13T02:53:00.373Z,0.00
2023-03-13T02:54:00.545Z,0.00
2023-03-13T02:55:00.703Z,0.00
2023-03-13T02:56:00.874Z,0.00
2023-03-13T02:57:01.035Z,0.00
2023-03-13T02:58:01.194Z,0.00
2023-03-13T02:59:01.357Z,0.00
2023-03-13T03:00:01.570Z,0.00
2023-03-13T03:01:01.739Z,0.00
2023-03-13T03:02:01.869Z,0.00
2023-03-13T03:03:02.011Z,0.00
2023-03-13T03:04:02.201Z,0.00
2023-03-13T03:05:02.245Z,0.00
2023-03-13T03:06:02.406Z,0.00
2023-03-13T03:07:02.547Z,0.00
2023-03-13T03:08:02.707Z,0.00
2023-03-13T03:09:02.851Z,0.00
2023-03-13T03:10:03.016Z,0.00
2023-03-13T03:11:03.149Z,0.00
2023-03-13T03:12:03.319Z,0.00
2023-03-13T03:13:03.435Z,0.00
2023-03-13T03:14:03.585Z,0.00
2023-03-13T03:15:03.722Z,0.00
2023-03-13T03:16:03.915Z,0.00
2023-03-13T03:17:04.057Z,0.00
2023-03-13T03:18:04.262Z,0.00
2023-03-13T03:19:04.395Z,0.00
2023-03-13T03:20:04.558Z,0.00
2023-03-13T03:21:04.697Z,0.00
2023-03-13T03:22:04.852Z,0.00
2023-03-13T03:23:04.996Z,0.00
2023-03-13T03:24:05.151Z,0.00
2023-03-13T03:25:05.297Z,0.00
2023-03-13T03:26:05.479Z,0.00
2023-03-13T03:27:05.594Z,0.00
2023-03-13T03:28:05.764Z,0.00
2023-03-13T03:29:05.922Z,0.00
2023-03-13T03:30:06.090Z,0.00
2023-03-13T03:31:06.236Z,0.00
2023-03-13T03:32:06.451Z,0.00
2023-03-13T03:33:06.507Z,0.00
2023-03-13T03:34:06.656Z,0.00
2023-03-13T03:35:06.801Z,0.00
2023-03-13T03:36:06.997Z,0.00
2023-03-13T03:37:07.015Z,0.00
2023-03-13T03:38:15.181Z,0.00
2023-03-13T03:39:08.037Z,0.00
2023-03-13T03:40:07.401Z,0.00
2023-03-13T03:41:07.550Z,0.00
2023-03-13T03:42:07.699Z,0.00
2023-03-13T03:43:07.849Z,0.00
2023-03-13T03:44:08.014Z,0.00
2023-03-13T03:45:08.158Z,0.00
2023-03-13T03:46:08.368Z,0.00
2023-03-13T03:47:08.561Z,0.00
2023-03-13T03:48:08.605Z,0.00
2023-03-13T03:49:08.757Z,0.00
2023-03-13T03:50:08.904Z,0.00
2023-03-13T03:51:09.062Z,0.00
2023-03-13T03:52:09.210Z,0.00
2023-03-13T03:53:09.352Z,0.00
2023-03-13T03:54:09.521Z,0.00
2023-03-13T03:55:09.672Z,0.00
2023-03-13T03:56:09.827Z,0.00
2023-03-13T03:57:09.973Z,0.00
2023-03-13T03:58:10.125Z,0.00
2023-03-13T03:59:10.281Z,0.00
2023-03-13T04:00:10.421Z,0.00
2023-03-13T04:01:10.553Z,0.00
2023-03-13T04:02:10.841Z,0.00
2023-03-13T04:03:10.913Z,0.00
2023-03-13T04:04:11.085Z,0.00
2023-03-13T04:05:11.227Z,0.00
2023-03-13T04:06:11.387Z,0.00
2023-03-13T04:07:11.522Z,0.00
2023-03-13T04:08:11.669Z,0.00
2023-03-13T04:09:11.828Z,0.00
2023-03-13T04:10:11.973Z,0.00
2023-03-13T04:11:12.134Z,0.00
2023-03-13T04:12:12.288Z,0.00
2023-03-13T04:13:12.423Z,0.00
2023-03-13T04:14:12.578Z,0.00
2023-03-13T04:15:12.714Z,0.00
2023-03-13T04:16:12.938Z,0.00
2023-03-13T04:17:12.960Z,0.00
2023-03-13T04:18:13.111Z,0.00
2023-03-13T04:19:13.266Z,0.00
2023-03-13T04:20:13.413Z,0.00
2023-03-13T04:21:13.563Z,0.00
2023-03-13T04:22:13.747Z,0.00
2023-03-13T04:23:13.860Z,0.00
2023-03-13T04:24:14.036Z,0.00
2023-03-13T04:25:14.168Z,0.00
2023-03-13T04:26:14.321Z,0.00
2023-03-13T04:27:14.454Z,0.00
2023-03-13T04:28:14.621Z,0.00
2023-03-13T04:29:14.770Z,0.00
2023-03-13T04:30:17.589Z,0.00
2023-03-13T04:31:15.038Z,0.00
2023-03-13T04:32:15.135Z,0.00
2023-03-13T04:33:15.242Z,0.00
2023-03-13T04:34:15.369Z,0.00
2023-03-13T04:35:15.579Z,0.00
2023-03-13T04:36:15.645Z,0.00
2023-03-13T04:37:15.809Z,0.00
2023-03-13T04:38:15.967Z,0.00
2023-03-13T04:39:16.124Z,0.00
2023-03-13T04:40:16.292Z,0.00
2023-03-13T04:41:16.426Z,0.00
2023-03-13T04:42:16.587Z,0.00
2023-03-13T04:43:16.743Z,0.00
2023-03-13T04:44:16.918Z,0.00
2023-03-13T04:45:17.073Z,0.00
2023-03-13T04:46:17.254Z,0.00
2023-03-13T04:47:17.316Z,0.00
2023-03-13T04:48:17.473Z,0.00
2023-03-13T04:49:17.643Z,0.00
2023-03-13T04:50:17.795Z,0.00
2023-03-13T04:51:17.939Z,0.00
2023-03-13T04:52:18.142Z,0.00
2023-03-13T04:53:18.256Z,0.00
2023-03-13T04:54:18.422Z,0.00
2023-03-13T04:55:18.575Z,0.00
2023-03-13T04:56:19.357Z,0.00
2023-03-13T04:57:18.948Z,0.00
2023-03-13T04:58:19.126Z,0.00
2023-03-13T04:59:19.291Z,0.00
2023-03-13T05:00:19.449Z,0.00
2023-03-13T05:01:19.620Z,0.00
2023-03-13T05:02:19.782Z,4.00
2023-03-13T05:03:19.955Z,4.00
2023-03-13T05:04:20.146Z,0.00
2023-03-13T05:05:20.399Z,4.00
2023-03-13T05:06:20.502Z,4.00
2023-03-13T05:07:20.662Z,4.00
2023-03-13T05:08:20.840Z,8.00
2023-03-13T05:09:21.035Z,8.00
2023-03-13T05:10:21.230Z,8.00
2023-03-13T05:11:21.369Z,12.00
2023-03-13T05:12:21.563Z,12.00
2023-03-13T05:13:21.725Z,12.00
2023-03-13T05:14:21.930Z,16.00
2023-03-13T05:15:22.103Z,20.00
2023-03-13T05:16:22.371Z,24.00
2023-03-13T05:17:22.432Z,24.00
2023-03-13T05:18:22.570Z,24.00
2023-03-13T05:19:22.725Z,28.00
2023-03-13T05:20:22.909Z,32.00
2023-03-13T05:21:23.085Z,32.00
2023-03-13T05:22:23.268Z,40.00
2023-03-13T05:23:23.440Z,44.00
2023-03-13T05:24:23.594Z,52.00
2023-03-13T05:25:23.777Z,52.00
2023-03-13T05:26:23.942Z,60.00
2023-03-13T05:27:24.102Z,64.00
2023-03-13T05:28:24.283Z,72.00
2023-03-13T05:29:24.449Z,80.00
2023-03-13T05:30:24.617Z,84.00
2023-03-13T05:31:24.830Z,96.00
2023-03-13T05:32:25.081Z,104.00
2023-03-13T05:33:25.169Z,112.00
2023-03-13T05:34:25.378Z,120.00
2023-03-13T05:35:25.487Z,128.00
2023-03-13T05:36:25.670Z,136.00
2023-03-13T05:37:25.775Z,148.00
2023-03-13T05:38:25.874Z,164.00
2023-03-13T05:39:26.056Z,176.00
2023-03-13T05:40:26.233Z,188.00
2023-03-13T05:41:26.409Z,200.00
2023-03-13T05:42:26.581Z,200.00
2023-03-13T05:43:26.756Z,216.00
2023-03-13T05:44:26.989Z,228.00
2023-03-13T05:45:27.056Z,252.00
2023-03-13T05:46:27.336Z,280.00
2023-03-13T05:47:27.403Z,312.00
2023-03-13T05:48:27.585Z,344.00
2023-03-13T05:49:27.762Z,376.00
2023-03-13T05:50:27.965Z,400.00
2023-03-13T05:51:28.123Z,428.00
2023-03-13T05:52:28.308Z,432.00
2023-03-13T05:53:28.486Z,432.00
2023-03-13T05:54:28.668Z,452.00
2023-03-13T05:55:28.881Z,496.00
2023-03-13T05:56:29.041Z,536.00
2023-03-13T05:57:29.218Z,552.00
2023-03-13T05:58:29.385Z,564.00
2023-03-13T05:59:29.584Z,576.00
2023-03-13T06:00:29.654Z,596.00
2023-03-13T06:01:29.811Z,620.00
2023-03-13T06:02:29.997Z,636.00
2023-03-13T06:03:30.231Z,648.00
2023-03-13T06:04:30.401Z,660.00
2023-03-13T06:05:30.307Z,648.00
2023-03-13T06:06:30.505Z,660.00
2023-03-13T06:07:30.653Z,680.00
2023-03-13T06:08:30.822Z,728.00
2023-03-13T06:09:31.018Z,780.00
2023-03-13T06:10:31.191Z,836.00
2023-03-13T06:11:31.370Z,860.00
2023-03-13T06:12:31.537Z,852.00
2023-03-13T06:13:31.721Z,828.00
2023-03-13T06:14:31.899Z,796.00
2023-03-13T06:15:32.074Z,756.00
2023-03-13T06:16:32.273Z,724.00
2023-03-13T06:17:32.443Z,724.00
2023-03-13T06:18:32.649Z,736.00
2023-03-13T06:19:32.839Z,760.00
2023-03-13T06:20:33.025Z,784.00
2023-03-13T06:21:33.222Z,796.00
2023-03-13T06:22:33.297Z,796.00
2023-03-13T06:23:33.483Z,784.00
2023-03-13T06:24:33.666Z,804.00
2023-03-13T06:25:33.854Z,808.00
2023-03-13T06:26:34.029Z,820.00
2023-03-13T06:27:34.220Z,828.00
2023-03-13T06:28:34.388Z,840.00
2023-03-13T06:29:34.598Z,800.00
2023-03-13T06:30:34.648Z,744.00
2023-03-13T06:31:35.055Z,740.00
2023-03-13T06:32:35.093Z,780.00
2023-03-13T06:33:35.103Z,852.00
2023-03-13T06:34:35.287Z,992.00
2023-03-13T06:35:43.523Z,1112.00
2023-03-13T06:36:36.658Z,1232.00
2023-03-13T06:37:35.701Z,1320.00
2023-03-13T06:38:35.904Z,1400.00
2023-03-13T06:39:36.112Z,1476.00
2023-03-13T06:40:36.181Z,1516.00
2023-03-13T06:41:36.382Z,1556.00
2023-03-13T06:42:36.562Z,1572.00
2023-03-13T06:43:36.770Z,1568.00
2023-03-13T06:44:36.847Z,1636.00
2023-03-13T06:45:37.051Z,1712.00
2023-03-13T06:46:37.213Z,1712.00
2023-03-13T06:47:37.307Z,1688.00
2023-03-13T06:48:37.487Z,1704.00
2023-03-13T06:49:37.684Z,1664.00
2023-03-13T06:50:37.864Z,1712.00
2023-03-13T06:51:38.029Z,1776.00
2023-03-13T06:52:43.957Z,1844.00
2023-03-13T06:53:39.348Z,1844.00
2023-03-13T06:54:38.529Z,1912.00
2023-03-13T06:55:38.727Z,2036.00
2023-03-13T06:56:38.900Z,2120.00
2023-03-13T06:57:39.088Z,2236.00
2023-03-13T06:58:39.261Z,2356.00
2023-03-13T06:59:39.443Z,2444.00
2023-03-13T07:00:39.706Z,2568.00
2023-03-13T07:01:39.759Z,2740.00
2023-03-13T07:02:39.954Z,2860.00
2023-03-13T07:03:40.185Z,2880.00
2023-03-13T07:04:40.242Z,2836.00
2023-03-13T07:05:40.418Z,2732.00
2023-03-13T07:06:40.603Z,2608.00
2023-03-13T07:07:40.798Z,2592.00
2023-03-13T07:08:40.968Z,2568.00
2023-03-13T07:09:41.155Z,2628.00
2023-03-13T07:10:41.337Z,2776.00
2023-03-13T07:11:41.520Z,2948.00
2023-03-13T07:12:41.708Z,2996.00
2023-03-13T07:13:41.905Z,3124.00
2023-03-13T07:14:42.082Z,3248.00
2023-03-13T07:15:42.274Z,3364.00
2023-03-13T07:16:42.527Z,3360.00
2023-03-13T07:17:42.627Z,3348.00
2023-03-13T07:18:42.766Z,3052.00
2023-03-13T07:19:42.995Z,2560.00
2023-03-13T07:20:43.175Z,2048.00
2023-03-13T07:21:43.242Z,1836.00
2023-03-13T07:22:43.395Z,1888.00
2023-03-13T07:23:43.570Z,2320.00
2023-03-13T07:24:43.753Z,2620.00
2023-03-13T07:25:43.927Z,2724.00
2023-03-13T07:26:57.700Z,2316.00
2023-03-13T07:27:45.206Z,2080.00
2023-03-13T07:28:44.375Z,2072.00
2023-03-13T07:29:44.574Z,1948.00
2023-03-13T07:30:44.705Z,1980.00
2023-03-13T07:31:44.912Z,1808.00
2023-03-13T07:32:45.013Z,1832.00
2023-03-13T07:33:45.088Z,2596.00
2023-03-13T07:34:45.282Z,2736.00
2023-03-13T07:35:45.423Z,3040.00
2023-03-13T07:36:45.576Z,3696.00
2023-03-13T07:37:45.818Z,3852.00
2023-03-13T07:38:45.873Z,3532.00
2023-03-13T07:39:46.083Z,3136.00
2023-03-13T07:40:46.190Z,3340.00
2023-03-13T07:41:46.358Z,3180.00
2023-03-13T07:42:46.491Z,3000.00
2023-03-13T07:43:46.641Z,3336.00
2023-03-13T07:44:46.814Z,3584.00
2023-03-13T07:45:47.032Z,3752.00
2023-03-13T07:46:47.150Z,3944.00
2023-03-13T07:47:47.308Z,3804.00
2023-03-13T07:48:47.461Z,3804.00
2023-03-13T07:49:47.632Z,3912.00
2023-03-13T07:50:47.775Z,4356.00
2023-03-13T07:51:47.933Z,4572.00
2023-03-13T07:52:48.102Z,4608.00
2023-03-13T07:53:48.239Z,4560.00
2023-03-13T07:54:48.398Z,4468.00
2023-03-13T07:55:48.540Z,4576.00
2023-03-13T07:56:48.680Z,4416.00
2023-03-13T07:57:48.829Z,3784.00
2023-03-13T07:58:49.017Z,3320.00
2023-03-13T07:59:49.167Z,2924.00
2023-03-13T08:00:49.308Z,3108.00
2023-03-13T08:01:49.525Z,3032.00
2023-03-13T08:02:49.521Z,2744.00
2023-03-13T08:03:49.729Z,2428.00
2023-03-13T08:04:49.805Z,2392.00
2023-03-13T08:05:49.980Z,2628.00
2023-03-13T08:06:50.118Z,2692.00
2023-03-13T08:07:50.254Z,3328.00
2023-03-13T08:08:50.401Z,3556.00
2023-03-13T08:09:50.557Z,3328.00
2023-03-13T08:10:50.693Z,3020.00
2023-03-13T08:11:50.836Z,3108.00
2023-03-13T08:12:50.975Z,2556.00
2023-03-13T08:13:51.104Z,2900.00
2023-03-13T08:14:51.271Z,2856.00
2023-03-13T08:15:51.426Z,3584.00
2023-03-13T08:16:51.599Z,3244.00
2023-03-13T08:17:51.658Z,2596.00
2023-03-13T08:18:51.795Z,2776.00
2023-03-13T08:19:51.969Z,2420.00
2023-03-13T08:20:52.089Z,2480.00
2023-03-13T08:21:52.239Z,2520.00
2023-03-13T08:22:52.381Z,2644.00
2023-03-13T08:23:52.571Z,3124.00
2023-03-13T08:24:52.806Z,3780.00
2023-03-13T08:25:52.848Z,4032.00
2023-03-13T08:26:53.006Z,3976.00
2023-03-13T08:27:53.143Z,3764.00
2023-03-13T08:28:53.279Z,3688.00
2023-03-13T08:29:53.469Z,3540.00
2023-03-13T08:30:53.648Z,3368.00
2023-03-13T08:31:53.776Z,3032.00
2023-03-13T08:32:54.006Z,2936.00
2023-03-13T08:33:54.014Z,2012.00
2023-03-13T08:34:54.179Z,1816.00
2023-03-13T08:35:54.391Z,2124.00
2023-03-13T08:36:54.457Z,2132.00
2023-03-13T08:37:54.602Z,2312.00
2023-03-13T08:38:54.733Z,2928.00
2023-03-13T08:39:54.908Z,2952.00
2023-03-13T08:40:55.051Z,2952.00
2023-03-13T08:41:55.200Z,3664.00
2023-03-13T08:42:55.330Z,3728.00
2023-03-13T08:43:55.478Z,3416.00
2023-03-13T08:44:55.659Z,3540.00
2023-03-13T08:45:55.896Z,3696.00
2023-03-13T08:46:55.928Z,3180.00
2023-03-13T08:47:56.077Z,3012.00
2023-03-13T08:48:56.241Z,3200.00
2023-03-13T08:49:56.403Z,2988.00
2023-03-13T08:50:56.541Z,2632.00
2023-03-13T08:51:56.688Z,2604.00
2023-03-13T08:52:56.822Z,2648.00
2023-03-13T08:53:56.983Z,2596.00
2023-03-13T08:54:57.130Z,2644.00
2023-03-13T08:55:57.256Z,2852.00
2023-03-13T08:56:57.389Z,2956.00
2023-03-13T08:57:57.560Z,2732.00
2023-03-13T08:58:57.715Z,3144.00
2023-03-13T08:59:57.911Z,2944.00
2023-03-13T09:00:57.942Z,3188.00
2023-03-13T09:01:58.076Z,3012.00
2023-03-13T09:02:58.320Z,2564.00
2023-03-13T09:03:59.539Z,2352.00
2023-03-13T09:04:58.495Z,2696.00
2023-03-13T09:05:58.654Z,2940.00
2023-03-13T09:06:58.806Z,3216.00
2023-03-13T09:07:59.492Z,3188.00
2023-03-13T09:08:59.057Z,2988.00
2023-03-13T09:09:59.234Z,2788.00
2023-03-13T09:10:59.385Z,2820.00
2023-03-13T09:11:59.533Z,2928.00
2023-03-13T09:12:59.683Z,3092.00
2023-03-13T09:13:59.828Z,3248.00
2023-03-13T09:14:59.980Z,3100.00
2023-03-13T09:16:00.204Z,2864.00
2023-03-13T09:17:00.320Z,2736.00
2023-03-13T09:18:00.390Z,2728.00
2023-03-13T09:19:00.559Z,2612.00
2023-03-13T09:20:01.420Z,2600.00
2023-03-13T09:21:00.817Z,2388.00
2023-03-13T09:22:00.983Z,2248.00
2023-03-13T09:23:01.118Z,2132.00
2023-03-13T09:24:01.298Z,2260.00
2023-03-13T09:25:01.437Z,2784.00
2023-03-13T09:26:01.587Z,2852.00
2023-03-13T09:27:01.869Z,3264.00
2023-03-13T09:28:01.910Z,3144.00
2023-03-13T09:29:02.052Z,2700.00
2023-03-13T09:30:02.217Z,2496.00
2023-03-13T09:31:02.392Z,2188.00
2023-03-13T09:32:02.549Z,1972.00
2023-03-13T09:33:02.915Z,1712.00
2023-03-13T09:34:02.841Z,1640.00
2023-03-13T09:35:02.993Z,1820.00
2023-03-13T09:36:03.168Z,1852.00
2023-03-13T09:37:03.221Z,2376.00
2023-03-13T09:38:03.378Z,2244.00
2023-03-13T09:39:10.523Z,2240.00
2023-03-13T09:40:03.647Z,2076.00
2023-03-13T09:41:06.473Z,1812.00
2023-03-13T09:42:06.251Z,1940.00
2023-03-13T09:43:04.133Z,2404.00
2023-03-13T09:44:04.283Z,2824.00
2023-03-13T09:45:04.451Z,3012.00
2023-03-13T09:46:04.629Z,3008.00
2023-03-13T09:47:04.797Z,3152.00
2023-03-13T09:48:04.928Z,3100.00
2023-03-13T09:49:05.079Z,3104.00
2023-03-13T09:50:05.250Z,3012.00
2023-03-13T09:51:05.385Z,3040.00
2023-03-13T09:52:05.530Z,2768.00
2023-03-13T09:53:05.685Z,3116.00
2023-03-13T09:54:05.854Z,3456.00
2023-03-13T09:55:05.890Z,3168.00
2023-03-13T09:56:06.157Z,2820.00
2023-03-13T09:57:06.206Z,2840.00
2023-03-13T09:58:06.310Z,2776.00
2023-03-13T09:59:06.460Z,2752.00
2023-03-13T10:00:06.616Z,2736.00
2023-03-13T10:01:06.747Z,2656.00
2023-03-13T10:02:06.931Z,2828.00
2023-03-13T10:03:06.978Z,2748.00
2023-03-13T10:04:07.136Z,2608.00
2023-03-13T10:05:07.274Z,2576.00
2023-03-13T10:06:07.394Z,2456.00
2023-03-13T10:07:07.519Z,2224.00
2023-03-13T10:08:07.682Z,1984.00
2023-03-13T10:09:07.813Z,2256.00
2023-03-13T10:10:08.129Z,2524.00
2023-03-13T10:11:08.141Z,2680.00
2023-03-13T10:12:08.302Z,3044.00
2023-03-13T10:13:08.441Z,3472.00
2023-03-13T10:14:08.580Z,3504.00
2023-03-13T10:15:08.823Z,3720.00
2023-03-13T10:16:08.946Z,3892.00
2023-03-13T10:17:09.040Z,4596.00
2023-03-13T10:18:09.070Z,4956.00
2023-03-13T10:19:09.204Z,6108.00
2023-03-13T10:20:09.370Z,5420.00
2023-03-13T10:21:09.498Z,5228.00
2023-03-13T10:22:09.648Z,7368.00
2023-03-13T10:23:09.814Z,7352.00
2023-03-13T10:24:09.976Z,6668.00
2023-03-13T10:25:10.209Z,7280.00
2023-03-13T10:26:10.291Z,7216.00
2023-03-13T10:27:10.488Z,6964.00
2023-03-13T10:28:10.685Z,7184.00
2023-03-13T10:29:10.696Z,7528.00
2023-03-13T10:30:10.891Z,7308.00
2023-03-13T10:31:11.018Z,7448.00
2023-03-13T10:32:11.071Z,7656.00
2023-03-13T10:33:11.207Z,7364.00
2023-03-13T10:34:12.342Z,6652.00
2023-03-13T10:35:11.502Z,7100.00
2023-03-13T10:36:11.686Z,7008.00
2023-03-13T10:37:11.723Z,6864.00
2023-03-13T10:38:11.836Z,8144.00
2023-03-13T10:39:12.514Z,9256.00
2023-03-13T10:40:12.085Z,10400.00
2023-03-13T10:41:12.222Z,10440.00
2023-03-13T10:42:12.336Z,8436.00
2023-03-13T10:43:12.487Z,6604.00
2023-03-13T10:44:12.611Z,6308.00
2023-03-13T10:45:12.753Z,6880.00
2023-03-13T10:46:12.909Z,6912.00
2023-03-13T10:47:13.012Z,7348.00
2023-03-13T10:48:13.136Z,9196.00
2023-03-13T10:49:13.277Z,11544.00
2023-03-13T10:50:13.409Z,12944.00
2023-03-13T10:51:13.542Z,13504.00
2023-03-13T10:52:13.664Z,14992.00
2023-03-13T10:53:13.790Z,15936.00
2023-03-13T10:54:13.900Z,16224.00
2023-03-13T10:55:14.060Z,16224.00
2023-03-13T10:56:14.198Z,15136.00
2023-03-13T10:57:14.310Z,15328.00
2023-03-13T10:58:14.422Z,15444.00
2023-03-13T10:59:14.553Z,15156.00
2023-03-13T11:00:14.720Z,13480.00
2023-03-13T11:01:14.814Z,12460.00
2023-03-13T11:02:14.940Z,11832.00
2023-03-13T11:03:15.144Z,11052.00
2023-03-13T11:04:15.144Z,11344.00
2023-03-13T11:05:15.282Z,12564.00
2023-03-13T11:06:15.380Z,14072.00
2023-03-13T11:07:15.493Z,14196.00
2023-03-13T11:08:15.644Z,13012.00
2023-03-13T11:09:15.781Z,12944.00
2023-03-13T11:10:15.905Z,13336.00
2023-03-13T11:11:16.017Z,14672.00
2023-03-13T11:12:16.135Z,16928.00
2023-03-13T11:13:19.949Z,28736.00
2023-03-13T11:14:17.312Z,21120.00
2023-03-13T11:15:16.478Z,25568.00
2023-03-13T11:16:16.475Z,24896.00
2023-03-13T11:17:19.124Z,28512.00
2023-03-13T11:18:16.659Z,25056.00
2023-03-13T11:19:16.794Z,23648.00
2023-03-13T11:20:16.961Z,22816.00
2023-03-13T11:21:18.567Z,26656.00
2023-03-13T11:22:17.115Z,19584.00
2023-03-13T11:23:17.207Z,22048.00
2023-03-13T11:24:17.316Z,27648.00
2023-03-13T11:25:17.939Z,21632.00
2023-03-13T11:26:17.521Z,25760.00
2023-03-13T11:27:17.618Z,21984.00
2023-03-13T11:28:17.730Z,22816.00
2023-03-13T11:29:17.967Z,18752.00
2023-03-13T11:30:17.916Z,22112.00
2023-03-13T11:31:17.947Z,18560.00
2023-03-13T11:32:18.071Z,17312.00
2023-03-13T11:33:18.171Z,15744.00
2023-03-13T11:34:18.242Z,15080.00
2023-03-13T11:35:18.358Z,16128.00
2023-03-13T11:36:18.512Z,15904.00
2023-03-13T11:37:18.486Z,14688.00
2023-03-13T11:38:18.558Z,16416.00
2023-03-13T11:39:18.659Z,15712.00
2023-03-13T11:40:18.761Z,16160.00
2023-03-13T11:41:18.898Z,16832.00
2023-03-13T11:42:18.946Z,17920.00
2023-03-13T11:43:25.366Z,17920.00
2023-03-13T11:44:20.057Z,16416.00
2023-03-13T11:45:19.354Z,16480.00
2023-03-13T11:46:19.368Z,15156.00
2023-03-13T11:47:19.363Z,14456.00
2023-03-13T11:48:19.448Z,14024.00
2023-03-13T11:49:19.519Z,13740.00
2023-03-13T11:50:19.616Z,13108.00
2023-03-13T11:51:20.868Z,12452.00
2023-03-13T11:52:19.761Z,11328.00
2023-03-13T11:53:19.889Z,11012.00
2023-03-13T11:54:19.951Z,10296.00
2023-03-13T11:55:19.976Z,9720.00
2023-03-13T11:56:20.053Z,9696.00
2023-03-13T11:57:20.162Z,9980.00
2023-03-13T11:58:20.266Z,10396.00
2023-03-13T11:59:20.383Z,10824.00
2023-03-13T12:00:20.500Z,11756.00
2023-03-13T12:01:20.645Z,11320.00
2023-03-13T12:02:20.803Z,11300.00
2023-03-13T12:03:20.785Z,10768.00
2023-03-13T12:04:20.860Z,11532.00
2023-03-13T12:05:21.101Z,11696.00
2023-03-13T12:06:27.936Z,11564.00
2023-03-13T12:07:22.285Z,13088.00
2023-03-13T12:08:21.376Z,18816.00
2023-03-13T12:09:21.487Z,17088.00
2023-03-13T12:10:21.596Z,19488.00
2023-03-13T12:11:21.702Z,25120.00
2023-03-13T12:12:21.784Z,21728.00
2023-03-13T12:13:21.879Z,17344.00
2023-03-13T12:14:21.961Z,17792.00
2023-03-13T12:15:22.070Z,19136.00
2023-03-13T12:16:22.206Z,16320.00
2023-03-13T12:17:22.297Z,13468.00
2023-03-13T12:18:22.394Z,12060.00
2023-03-13T12:19:22.486Z,12188.00
2023-03-13T12:20:22.612Z,14340.00
2023-03-13T12:21:22.709Z,26112.00
2023-03-13T12:22:22.873Z,16128.00
2023-03-13T12:23:22.856Z,18400.00
2023-03-13T12:24:22.951Z,21728.00
2023-03-13T12:25:23.164Z,14736.00
2023-03-13T12:26:23.134Z,13732.00
2023-03-13T12:27:23.209Z,10252.00
2023-03-13T12:28:24.092Z,11216.00
2023-03-13T12:29:23.391Z,31392.00
2023-03-13T12:30:23.512Z,22336.00
2023-03-13T12:31:23.506Z,40576.00
2023-03-13T12:32:23.612Z,44192.00
2023-03-13T12:33:24.155Z,24192.00
2023-03-13T12:34:23.731Z,59456.00
2023-03-13T12:35:23.831Z,22720.00